createdAt,value
2023-04-09T00:01:26.079Z,2.31
2023-04-09T00:06:28.968Z,2.15
2023-04-09T00:11:32.006Z,1.98
2023-04-09T00:16:36.289Z,1.93
2023-04-09T00:21:39.234Z,1.91
2023-04-09T00:26:42.112Z,1.89
2023-04-09T00:31:46.362Z,1.85
2023-04-09T00:36:49.396Z,1.66
2023-04-09T00:41:57.274Z,1.68
2023-04-09T00:47:01.799Z,1.67
2023-04-09T00:52:05.012Z,1.54
2023-04-09T00:57:08.055Z,1.66
2023-04-09T01:02:12.966Z,1.63
2023-04-09T01:07:23.302Z,1.36
2023-04-09T01:12:33.985Z,1.61
2023-04-09T01:17:45.302Z,1.64
2023-04-09T01:23:02.271Z,1.68
2023-04-09T01:28:16.508Z,1.67
2023-04-09T01:33:21.441Z,1.62
2023-04-09T01:38:25.638Z,1.56
2023-04-09T01:43:31.549Z,1.69
2023-04-09T01:48:35.438Z,1.36
2023-04-09T01:53:38.524Z,1.21
2023-04-09T01:58:42.953Z,1.33
2023-04-09T02:03:50.038Z,1.31
2023-04-09T02:08:54.726Z,1.13
2023-04-09T02:13:59.664Z,1.26
2023-04-09T02:19:02.675Z,1.26
2023-04-09T02:24:05.937Z,1.38
2023-04-09T02:29:10.289Z,1.26
2023-04-09T02:34:13.153Z,1.17
2023-04-09T02:39:16.173Z,1.20
2023-04-09T02:44:20.583Z,1.33
2023-04-09T02:49:23.723Z,1.11
2023-04-09T02:54:26.670Z,0.87
2023-04-09T02:59:32.967Z,0.92
2023-04-09T03:04:35.995Z,1.07
2023-04-09T03:09:38.963Z,1.00
2023-04-09T03:14:43.212Z,1.02
2023-04-09T03:19:46.153Z,0.94
2023-04-09T03:24:51.052Z,0.95
2023-04-09T03:29:58.184Z,0.98
2023-04-09T03:35:10.478Z,0.90
2023-04-09T03:40:15.480Z,1.10
2023-04-09T03:45:19.786Z,1.06
2023-04-09T03:50:25.155Z,1.06
2023-04-09T03:55:31.367Z,1.11
2023-04-09T04:00:39.211Z,1.09
2023-04-09T04:06:06.425Z,1.10
2023-04-09T04:11:20.431Z,1.15
2023-04-09T04:16:25.712Z,1.21
2023-04-09T04:21:29.983Z,1.44
2023-04-09T04:26:37.032Z,1.39
2023-04-09T04:31:41.386Z,1.38
2023-04-09T04:36:45.160Z,1.31
2023-04-09T04:41:48.465Z,1.37
2023-04-09T04:46:58.455Z,1.45
2023-04-09T04:52:01.433Z,1.47
2023-04-09T04:57:04.789Z,1.52
2023-04-09T05:02:16.305Z,1.51
2023-04-09T05:07:45.631Z,1.79
2023-04-09T05:12:48.910Z,1.80
2023-04-09T05:18:02.712Z,1.89
2023-04-09T05:23:06.246Z,2.15
2023-04-09T05:28:16.829Z,2.03
2023-04-09T05:33:22.477Z,2.26
2023-04-09T05:38:26.526Z,2.39
2023-04-09T05:43:33.422Z,2.62
2023-04-09T05:48:37.960Z,3.30
2023-04-09T05:53:42.825Z,3.69
2023-04-09T05:58:47.671Z,4.42
2023-04-09T06:03:54.087Z,5.20
2023-04-09T06:08:59.161Z,3.98
2023-04-09T06:14:02.058Z,5.37
2023-04-09T06:19:06.290Z,5.57
2023-04-09T06:24:09.237Z,6.18
2023-04-09T06:29:12.149Z,7.02
2023-04-09T06:34:16.368Z,7.67
2023-04-09T06:39:19.297Z,6.51
2023-04-09T06:44:24.311Z,7.04
2023-04-09T06:49:28.904Z,8.10
2023-04-09T06:54:31.828Z,7.79
2023-04-09T06:59:34.787Z,7.81
2023-04-09T07:04:39.159Z,8.77
2023-04-09T07:09:42.190Z,7.82
2023-04-09T07:14:45.039Z,8.04
2023-04-09T07:19:49.345Z,9.60
2023-04-09T07:24:55.139Z,10.59
2023-04-09T07:29:59.523Z,10.83
2023-04-09T07:35:05.077Z,9.96
2023-04-09T07:40:09.320Z,10.64
2023-04-09T07:45:12.229Z,10.74
2023-04-09T07:50:16.930Z,11.46
2023-04-09T07:55:20.285Z,11.79
2023-04-09T08:00:23.330Z,10.62
2023-04-09T08:05:28.405Z,9.29
2023-04-09T08:10:31.310Z,10.00
2023-04-09T08:15:34.202Z,10.64
2023-04-09T08:20:44.820Z,11.34
2023-04-09T08:25:47.838Z,10.66
2023-04-09T08:30:50.857Z,11.32
2023-04-09T08:35:55.074Z,11.40
2023-04-09T08:40:57.964Z,11.10
2023-04-09T08:46:03.169Z,12.02
2023-04-09T08:51:07.814Z,11.77
2023-04-09T08:56:10.829Z,11.08
2023-04-09T09:01:21.464Z,11.65
2023-04-09T09:06:28.678Z,10.94
2023-04-09T09:11:32.010Z,10.67
2023-04-09T09:16:35.954Z,10.56
2023-04-09T09:21:40.742Z,11.38
2023-04-09T09:26:43.774Z,11.09
2023-04-09T09:31:51.591Z,10.38
2023-04-09T09:36:55.910Z,12.88
2023-04-09T09:42:09.042Z,11.91
2023-04-09T09:47:14.293Z,11.05
2023-04-09T09:52:25.546Z,11.73
2023-04-09T09:57:32.589Z,12.35
2023-04-09T10:02:44.938Z,12.63
2023-04-09T10:07:50.398Z,12.14
2023-04-09T10:12:53.589Z,12.87
2023-04-09T10:17:56.936Z,11.84
2023-04-09T10:23:07.026Z,12.53
2023-04-09T10:28:17.528Z,13.19
2023-04-09T10:33:26.514Z,12.02
2023-04-09T10:38:38.414Z,12.14
2023-04-09T10:43:42.090Z,11.08
2023-04-09T10:48:45.008Z,10.76
2023-04-09T10:53:54.274Z,11.09
2023-04-09T10:58:57.162Z,12.55
2023-04-09T11:04:10.883Z,12.61
2023-04-09T11:09:15.226Z,12.47
2023-04-09T11:14:20.732Z,12.20
2023-04-09T11:19:24.440Z,12.90
2023-04-09T11:24:40.787Z,11.73
2023-04-09T11:29:43.703Z,13.18
2023-04-09T11:34:46.566Z,14.07
2023-04-09T11:39:55.581Z,12.98
2023-04-09T11:45:01.063Z,14.20
2023-04-09T11:50:04.212Z,13.36
2023-04-09T11:55:09.705Z,12.65
2023-04-09T12:00:14.589Z,12.49
2023-04-09T12:05:24.690Z,13.45
2023-04-09T12:10:33.138Z,13.13
2023-04-09T12:15:37.085Z,13.07
2023-04-09T12:20:42.311Z,13.72
2023-04-09T12:25:47.669Z,14.81
2023-04-09T12:30:52.109Z,14.09
2023-04-09T12:35:56.082Z,12.29
2023-04-09T12:41:01.265Z,12.73
2023-04-09T12:46:04.519Z,14.58
2023-04-09T12:51:07.664Z,13.56
2023-04-09T12:56:11.967Z,13.61
2023-04-09T13:01:15.044Z,14.48
2023-04-09T13:06:17.996Z,13.65
2023-04-09T13:11:22.296Z,13.71
2023-04-09T13:16:26.050Z,14.16
2023-04-09T13:21:28.980Z,13.47
2023-04-09T13:26:33.271Z,13.94
2023-04-09T13:31:36.904Z,13.49
2023-04-09T13:36:39.803Z,13.84
2023-04-09T13:41:44.648Z,14.33
2023-04-09T13:46:47.521Z,13.58
2023-04-09T13:51:50.938Z,13.55
2023-04-09T13:56:55.447Z,13.37
2023-04-09T14:01:58.669Z,13.19
2023-04-09T14:07:01.726Z,13.33
2023-04-09T14:12:06.468Z,14.12
2023-04-09T14:17:09.348Z,13.11
2023-04-09T14:22:12.548Z,12.62
2023-04-09T14:27:16.873Z,12.71
2023-04-09T14:32:20.096Z,12.74
2023-04-09T14:37:23.099Z,13.42
2023-04-09T14:42:27.400Z,13.58
2023-04-09T14:47:30.483Z,14.05
2023-04-09T14:52:33.416Z,13.62
2023-04-09T14:57:37.718Z,13.74
2023-04-09T15:02:41.549Z,13.07
2023-04-09T15:07:44.743Z,13.05
2023-04-09T15:12:49.064Z,13.25
2023-04-09T15:17:52.123Z,12.73
2023-04-09T15:22:55.014Z,12.87
2023-04-09T15:27:59.995Z,12.38
2023-04-09T15:33:03.040Z,12.53
2023-04-09T15:38:06.056Z,13.00
2023-04-09T15:43:10.402Z,13.27
2023-04-09T15:48:13.416Z,12.65
2023-04-09T15:53:16.748Z,13.25
2023-04-09T15:58:21.095Z,12.65
2023-04-09T16:03:23.977Z,12.99
2023-04-09T16:08:26.931Z,13.01
2023-04-09T16:13:31.318Z,13.33
2023-04-09T16:18:34.838Z,12.69
2023-04-09T16:23:38.463Z,12.65
2023-04-09T16:28:42.760Z,12.41
2023-04-09T16:33:45.862Z,12.50
2023-04-09T16:38:49.943Z,12.42
2023-04-09T16:43:54.332Z,12.39
2023-04-09T16:48:57.234Z,12.44
2023-04-09T16:54:00.361Z,12.42
2023-04-09T16:59:04.749Z,12.23
2023-04-09T17:04:07.850Z,11.99
2023-04-09T17:09:10.895Z,12.09
2023-04-09T17:14:15.427Z,11.99
2023-04-09T17:19:18.534Z,11.97
2023-04-09T17:24:21.470Z,12.11
2023-04-09T17:29:25.771Z,11.91
2023-04-09T17:34:28.955Z,11.87
2023-04-09T17:39:32.073Z,11.73
2023-04-09T17:44:36.997Z,11.54
2023-04-09T17:49:40.323Z,11.18
2023-04-09T17:54:45.464Z,11.09
2023-04-09T17:59:49.999Z,10.91
2023-04-09T18:04:53.124Z,10.80
2023-04-09T18:09:56.233Z,10.71
2023-04-09T18:15:00.504Z,10.68
2023-04-09T18:20:03.513Z,10.41
2023-04-09T18:25:07.525Z,10.38
2023-04-09T18:30:12.924Z,10.26
2023-04-09T18:35:17.428Z,10.18
2023-04-09T18:40:20.688Z,10.00
2023-04-09T18:45:25.488Z,9.90
2023-04-09T18:50:28.450Z,9.70
2023-04-09T18:55:31.772Z,9.54
2023-04-09T19:00:36.572Z,9.55
2023-04-09T19:05:39.710Z,9.27
2023-04-09T19:10:42.620Z,9.44
2023-04-09T19:15:46.964Z,9.36
2023-04-09T19:20:49.887Z,9.36
2023-04-09T19:25:55.167Z,9.20
2023-04-09T19:31:01.397Z,9.17
2023-04-09T19:36:07.930Z,9.18
2023-04-09T19:41:10.863Z,9.16
2023-04-09T19:46:15.434Z,9.19
2023-04-09T19:51:18.656Z,9.10
2023-04-09T19:56:22.119Z,9.17
2023-04-09T20:01:26.764Z,8.89
2023-04-09T20:06:30.760Z,8.94
2023-04-09T20:11:33.710Z,8.86
2023-04-09T20:16:38.249Z,8.81
2023-04-09T20:21:41.969Z,8.67
2023-04-09T20:26:44.912Z,8.61
2023-04-09T20:31:49.330Z,8.62
2023-04-09T20:36:52.344Z,8.53
2023-04-09T20:41:56.554Z,8.55
2023-04-09T20:47:01.137Z,8.59
2023-04-09T20:52:04.074Z,8.50
2023-04-09T20:57:07.173Z,8.22
2023-04-09T21:07:16.671Z,8.04
2023-04-09T21:12:19.600Z,7.85
2023-04-09T21:17:23.911Z,7.79
2023-04-09T21:22:26.828Z,7.63
2023-04-09T21:27:29.767Z,7.51
2023-04-09T21:32:34.109Z,7.54
2023-04-09T21:37:37.640Z,7.59
2023-04-09T21:42:40.657Z,7.60
2023-04-09T21:47:45.480Z,7.43
2023-04-09T21:52:48.470Z,7.44
2023-04-09T21:57:53.591Z,7.40
2023-04-09T22:03:01.264Z,7.38
2023-04-09T22:08:04.424Z,7.35
2023-04-09T22:13:07.747Z,7.26
2023-04-09T22:18:11.988Z,7.10
2023-04-09T22:23:14.864Z,6.93
2023-04-09T22:28:17.805Z,6.79
2023-04-09T22:33:22.076Z,6.81
2023-04-09T22:38:25.376Z,6.59
2023-04-09T22:43:28.505Z,6.47
2023-04-09T22:48:35.887Z,6.42
2023-04-09T22:53:43.876Z,6.43
2023-04-09T22:58:46.815Z,6.28
2023-04-09T23:03:51.640Z,6.06
2023-04-09T23:08:54.790Z,5.98
2023-04-09T23:13:57.876Z,5.90
2023-04-09T23:19:02.106Z,5.90
2023-04-09T23:24:05.410Z,5.64
2023-04-09T23:29:08.317Z,5.69
2023-04-09T23:34:13.005Z,5.65
2023-04-09T23:39:15.935Z,5.60
2023-04-09T23:44:18.783Z,5.48
2023-04-09T23:49:23.161Z,5.45
2023-04-09T23:54:26.055Z,5.35
2023-04-09T23:59:31.131Z,5.24
